Ohyamamaru — JG5507 — position and weather

sailwx.info

Track history (hours):
 
Tides and Currents Weather Stations Pressure Air Temp Water Temp Dewpoint Dewpoint Depression Visibility Wind Speed Wind Dir Waves Ship Positions

Ohyamamaru

Last reported at 2014-Dec-19 22:18 UTC. Time now 2014-Dec-21 04:05 UTC.
Position N 35°38' E 139°45'.

Length 36 m; draft 4.4 m.

Type: Tug. MMSI: 431001114.

Date/timePositionNaut miles runAvg speedWind from/ knotsBaromVisibWave heightAir tempDewpointWater temp
2014-Dec-19 22:18N 35°38' E 139°45'5 6.1
2014-Dec-19 21:32N 35°34' E 139°49'0 0.0
2014-Dec-18 23:33N 35°34' E 139°49'2 0.9
2014-Dec-18 21:21N 35°35' E 139°47'1 1.5
2014-Dec-18 20:29N 35°37' E 139°47'1 0.1
2014-Dec-17 23:05N 35°38' E 139°46'2 3.9
2014-Dec-17 22:32N 35°36' E 139°47'1 0.0
2014-Dec-16 16:05N 35°37' E 139°46'0 0.1
2014-Dec-16 10:27N 35°37' E 139°46'2 2.3
2014-Dec-16 09:32N 35°35' E 139°48'1 0.0
2014-Dec-15 03:25N 35°36' E 139°47'1 1.0
2014-Dec-15 02:22N 35°37' E 139°46'1 0.0
2014-Dec-12 22:33N 35°38' E 139°46'3 3.1
2014-Dec-12 21:29N 35°35' E 139°48'2 1.8
2014-Dec-12 20:33N 35°36' E 139°46'2 1.6
2014-Dec-12 19:29N 35°38' E 139°46'1 1.5
2014-Dec-12 18:33N 35°37' E 139°46'0 0.0
2014-Dec-12 04:03N 35°37' E 139°46'1 1.0
2014-Dec-12 03:28N 35°36' E 139°47'2 0.1
2014-Dec-11 10:27N 35°38' E 139°46'3 2.8
2014-Dec-11 09:33N 35°36' E 139°47'0 0.0
2014-Dec-11 05:06N 35°36' E 139°47'3 0.8
2014-Dec-11 01:28N 35°38' E 139°45'0 0.0
2014-Dec-09 23:27N 35°38' E 139°46'5 5.4
2014-Dec-09 22:33N 35°34' E 139°49'  
Track history (hours):
 
Tides and Currents Weather Stations Pressure Air Temp Water Temp Dewpoint Dewpoint Depression Visibility Wind Speed Wind Dir Waves Ship Positions

Ohyamamaru

Last reported at 2014-Dec-19 22:18 UTC. Time now 2014-Dec-21 04:05 UTC.
Position N 35°38' E 139°45'.

Length 36 m; draft 4.4 m.

Type: Tug. MMSI: 431001114.

Date/timePositionNaut miles runAvg speedWind from/ knotsBaromVisibWave heightAir tempDewpointWater temp
2014-Dec-19 22:18N 35°38' E 139°45'5 6.1
2014-Dec-19 21:32N 35°34' E 139°49'0 0.0
2014-Dec-18 23:33N 35°34' E 139°49'2 0.9
2014-Dec-18 21:21N 35°35' E 139°47'1 1.5
2014-Dec-18 20:29N 35°37' E 139°47'1 0.1
2014-Dec-17 23:05N 35°38' E 139°46'2 3.9
2014-Dec-17 22:32N 35°36' E 139°47'1 0.0
2014-Dec-16 16:05N 35°37' E 139°46'0 0.1
2014-Dec-16 10:27N 35°37' E 139°46'2 2.3
2014-Dec-16 09:32N 35°35' E 139°48'1 0.0
2014-Dec-15 03:25N 35°36' E 139°47'1 1.0
2014-Dec-15 02:22N 35°37' E 139°46'1 0.0
2014-Dec-12 22:33N 35°38' E 139°46'3 3.1
2014-Dec-12 21:29N 35°35' E 139°48'2 1.8
2014-Dec-12 20:33N 35°36' E 139°46'2 1.6
2014-Dec-12 19:29N 35°38' E 139°46'1 1.5
2014-Dec-12 18:33N 35°37' E 139°46'0 0.0
2014-Dec-12 04:03N 35°37' E 139°46'1 1.0
2014-Dec-12 03:28N 35°36' E 139°47'2 0.1
2014-Dec-11 10:27N 35°38' E 139°46'3 2.8
2014-Dec-11 09:33N 35°36' E 139°47'0 0.0
2014-Dec-11 05:06N 35°36' E 139°47'3 0.8
2014-Dec-11 01:28N 35°38' E 139°45'0 0.0
2014-Dec-09 23:27N 35°38' E 139°46'5 5.4
2014-Dec-09 22:33N 35°34' E 139°49'  

Dump ship's entire track history